Terminal Aerodrome Forecast
Issued by NWS

Home | Current Version | Previous Version | Graphics & Text | Print | Product List | Glossary Off
Versions: 1 2 3 4 5 6 7 8 9 10 11 12 13 14

000
FTUS43 KBIS 201128
TAFJMS
TAF
KJMS 201128Z 2012/2112 18015KT P6SM FEW250 WS020/21035KT
     FM201600 17018G26KT P6SM FEW250
     FM202200 17016G24KT P6SM SCT250 WS020/18040KT
     FM210800 22011KT P6SM FEW250 WS020/23040KT
     FM211000 25013KT P6SM FEW250 WS020/27030KT=

USA.gov is the U.S. government's official web portal to all federal, state and local government web resources and services.